createdAt,value
2023-02-23T00:01:27.872Z,18.83
2023-02-23T00:03:58.178Z,16.10
2023-02-23T00:06:27.444Z,14.27
2023-02-23T00:08:58.270Z,16.37
2023-02-23T00:11:29.206Z,15.40
2023-02-23T00:13:58.138Z,14.50
2023-02-23T00:16:27.638Z,17.17
2023-02-23T00:18:57.326Z,16.17
2023-02-23T00:21:26.519Z,14.70
2023-02-23T00:23:57.490Z,15.90
2023-02-23T00:26:31.177Z,16.17
2023-02-23T00:29:00.762Z,15.47
2023-02-23T00:31:30.121Z,17.13
2023-02-23T00:34:00.038Z,17.90
2023-02-23T00:36:29.870Z,17.30
2023-02-23T00:39:00.600Z,16.50
2023-02-23T00:41:31.591Z,15.47
2023-02-23T00:44:01.472Z,17.50
2023-02-23T00:46:31.444Z,15.23
2023-02-23T00:49:00.909Z,14.80
2023-02-23T00:51:32.849Z,17.40
2023-02-23T00:54:02.715Z,16.77
2023-02-23T00:56:33.255Z,16.13
2023-02-23T00:59:02.011Z,15.97
2023-02-23T01:01:30.840Z,16.07
2023-02-23T01:03:59.382Z,18.33
2023-02-23T01:06:28.429Z,17.83
2023-02-23T01:09:00.347Z,15.57
2023-02-23T01:11:31.849Z,18.90
2023-02-23T01:14:02.586Z,17.90
2023-02-23T01:16:32.158Z,20.30
2023-02-23T01:19:01.621Z,16.43
2023-02-23T01:21:31.580Z,23.33
2023-02-23T01:24:00.490Z,17.50
2023-02-23T01:26:30.601Z,17.27
2023-02-23T01:29:00.942Z,16.40
2023-02-23T01:31:31.798Z,21.20
2023-02-23T01:34:01.604Z,18.17
2023-02-23T01:36:30.678Z,19.77
2023-02-23T01:39:00.283Z,19.37
2023-02-23T01:41:33.038Z,17.63
2023-02-23T01:44:04.043Z,20.07
2023-02-23T01:46:35.268Z,18.03
2023-02-23T01:49:04.839Z,17.63
2023-02-23T01:51:37.001Z,21.20
2023-02-23T01:54:09.579Z,19.57
2023-02-23T01:56:43.766Z,17.47
2023-02-23T01:59:15.539Z,19.60
2023-02-23T02:01:45.884Z,21.63
2023-02-23T02:04:16.821Z,22.80
2023-02-23T02:06:46.426Z,17.43
2023-02-23T02:09:18.815Z,20.63
2023-02-23T02:11:54.362Z,20.27
2023-02-23T02:14:24.643Z,21.73
2023-02-23T02:17:08.940Z,22.57
2023-02-23T02:19:49.064Z,19.30
2023-02-23T02:22:35.296Z,20.33
2023-02-23T02:25:25.162Z,17.10
2023-02-23T02:28:09.604Z,19.63
2023-02-23T02:30:47.864Z,18.57
2023-02-23T02:33:33.200Z,17.30
2023-02-23T02:36:19.954Z,21.00
2023-02-23T02:38:55.182Z,19.13
2023-02-23T02:41:30.856Z,18.77
2023-02-23T02:44:00.814Z,23.03
2023-02-23T02:46:31.163Z,18.77
2023-02-23T02:49:02.121Z,19.47
2023-02-23T02:51:35.310Z,22.40
2023-02-23T02:54:09.207Z,19.90
2023-02-23T02:56:40.722Z,19.07
2023-02-23T02:59:27.498Z,20.20
2023-02-23T03:02:13.400Z,20.00
2023-02-23T03:05:00.232Z,22.60
2023-02-23T03:07:49.210Z,18.67
2023-02-23T03:10:43.070Z,23.23
2023-02-23T03:13:36.169Z,24.77
2023-02-23T03:16:30.047Z,19.80
2023-02-23T03:19:26.582Z,21.10
2023-02-23T03:22:15.994Z,24.40
2023-02-23T03:25:07.238Z,20.00
2023-02-23T03:28:03.458Z,22.40
2023-02-23T03:30:55.728Z,24.17
2023-02-23T03:33:45.653Z,22.67
2023-02-23T03:36:35.510Z,24.17
2023-02-23T03:39:26.405Z,18.30
2023-02-23T03:42:13.841Z,20.70
2023-02-23T03:45:03.246Z,28.77
2023-02-23T03:47:51.997Z,20.03
2023-02-23T03:50:43.666Z,22.97
2023-02-23T03:53:31.139Z,19.67
2023-02-23T03:56:17.513Z,20.87
2023-02-23T03:59:06.026Z,19.53
2023-02-23T04:01:55.027Z,18.50
2023-02-23T04:04:42.983Z,24.27
2023-02-23T04:07:29.715Z,20.83
2023-02-23T04:10:15.564Z,23.40
2023-02-23T04:13:05.802Z,17.30
2023-02-23T04:15:34.773Z,20.67
2023-02-23T04:18:05.361Z,24.07
2023-02-23T04:20:34.359Z,23.17
2023-02-23T04:23:03.319Z,21.77
2023-02-23T04:25:32.184Z,23.47
2023-02-23T04:28:00.702Z,22.27
2023-02-23T04:30:29.633Z,21.10
2023-02-23T04:32:59.200Z,20.60
2023-02-23T04:35:31.432Z,22.03
2023-02-23T04:38:00.241Z,21.93
2023-02-23T04:40:29.422Z,20.93
2023-02-23T04:42:58.330Z,25.07
2023-02-23T04:45:27.052Z,24.27
2023-02-23T04:47:55.685Z,21.80
2023-02-23T04:50:24.340Z,24.00
2023-02-23T04:52:54.414Z,21.37
2023-02-23T04:55:23.784Z,18.73
2023-02-23T04:57:52.626Z,23.80
2023-02-23T05:00:21.417Z,20.63
2023-02-23T05:02:50.861Z,22.73
2023-02-23T05:05:19.680Z,19.73
2023-02-23T05:07:48.379Z,20.57
2023-02-23T05:10:18.441Z,19.50
2023-02-23T05:12:47.543Z,21.53
2023-02-23T05:15:18.495Z,24.00
2023-02-23T05:17:47.081Z,23.27
2023-02-23T05:20:16.467Z,24.57
2023-02-23T05:22:45.053Z,19.67
2023-02-23T05:25:13.670Z,22.30
2023-02-23T05:27:43.775Z,22.37
2023-02-23T05:30:13.240Z,29.50
2023-02-23T05:32:41.792Z,18.90
2023-02-23T05:35:11.671Z,18.13
2023-02-23T05:37:40.308Z,24.33
2023-02-23T05:40:09.521Z,18.70
2023-02-23T05:42:38.720Z,20.40
2023-02-23T05:45:11.172Z,20.87
2023-02-23T05:47:40.466Z,19.70
2023-02-23T05:50:10.937Z,18.90
2023-02-23T05:52:41.717Z,19.27
2023-02-23T05:55:11.744Z,22.27
2023-02-23T05:57:41.086Z,24.30
2023-02-23T06:00:13.724Z,20.80
2023-02-23T06:02:42.321Z,21.23
2023-02-23T06:05:11.439Z,33.53
2023-02-23T06:07:40.150Z,21.57
2023-02-23T06:10:09.425Z,18.23
2023-02-23T06:12:38.269Z,18.53
2023-02-23T06:15:07.591Z,19.63
2023-02-23T06:17:38.275Z,19.73
2023-02-23T06:20:08.165Z,17.50
2023-02-23T06:22:46.151Z,18.90
2023-02-23T06:25:17.934Z,16.20
2023-02-23T06:27:47.200Z,18.20
2023-02-23T06:30:16.012Z,20.07
2023-02-23T06:32:46.687Z,16.47
2023-02-23T06:35:15.617Z,18.60
2023-02-23T06:37:44.928Z,20.90
2023-02-23T06:40:13.903Z,25.93
2023-02-23T06:42:42.735Z,19.47
2023-02-23T06:45:12.490Z,18.97
2023-02-23T06:47:41.929Z,19.47
2023-02-23T06:50:12.977Z,19.53
2023-02-23T06:52:41.623Z,17.93
2023-02-23T06:55:11.408Z,19.87
2023-02-23T06:57:40.161Z,18.17
2023-02-23T07:00:10.023Z,17.80
2023-02-23T07:02:38.813Z,22.03
2023-02-23T07:05:07.727Z,21.70
2023-02-23T07:10:20.343Z,20.57
2023-02-23T07:12:48.892Z,19.20
2023-02-23T07:15:18.566Z,19.87
2023-02-23T07:17:48.899Z,17.13
2023-02-23T07:20:18.507Z,16.40
2023-02-23T07:22:48.716Z,19.97
2023-02-23T07:25:17.488Z,20.30
2023-02-23T07:27:46.930Z,16.90
2023-02-23T07:30:15.875Z,20.07
2023-02-23T07:32:44.729Z,22.47
2023-02-23T07:35:13.474Z,15.73
2023-02-23T07:37:42.269Z,17.57
2023-02-23T07:40:13.214Z,15.63
2023-02-23T07:42:41.908Z,16.40
2023-02-23T07:45:11.597Z,16.33
2023-02-23T07:47:40.787Z,16.43
2023-02-23T07:50:11.148Z,21.50
2023-02-23T07:52:40.601Z,22.47
2023-02-23T07:55:13.360Z,22.93
2023-02-23T07:57:43.720Z,19.03
2023-02-23T08:00:14.107Z,25.03
2023-02-23T08:02:43.602Z,17.50
2023-02-23T08:05:13.557Z,20.20
2023-02-23T08:07:43.492Z,20.23
2023-02-23T08:10:15.441Z,18.23
2023-02-23T08:12:46.256Z,22.00
2023-02-23T08:15:16.384Z,17.73
2023-02-23T08:17:54.210Z,20.13
2023-02-23T08:20:22.837Z,17.93
2023-02-23T08:22:56.304Z,18.57
2023-02-23T08:25:25.793Z,21.67
2023-02-23T08:28:04.942Z,17.30
2023-02-23T08:30:34.106Z,24.47
2023-02-23T08:33:06.061Z,17.67
2023-02-23T08:35:34.751Z,17.70
2023-02-23T08:38:03.736Z,17.53
2023-02-23T08:40:36.242Z,20.97
2023-02-23T08:43:08.091Z,19.30
2023-02-23T08:45:38.122Z,21.97
2023-02-23T08:48:07.001Z,18.63
2023-02-23T08:50:36.950Z,19.77
2023-02-23T08:53:05.730Z,25.73
2023-02-23T08:55:35.744Z,18.27
2023-02-23T08:58:04.999Z,18.33
2023-02-23T09:00:35.350Z,14.90
2023-02-23T09:03:05.324Z,17.37
2023-02-23T09:05:34.119Z,16.27
2023-02-23T09:08:03.221Z,15.90
2023-02-23T09:10:32.394Z,17.67
2023-02-23T09:13:03.427Z,15.23
2023-02-23T09:15:33.347Z,14.87
2023-02-23T09:18:14.491Z,24.33
2023-02-23T09:20:44.424Z,21.63
2023-02-23T09:23:14.302Z,16.30
2023-02-23T09:25:44.806Z,15.20
2023-02-23T09:28:15.086Z,14.60
2023-02-23T09:30:45.287Z,20.47
2023-02-23T09:36:30.414Z,12.67
2023-02-23T09:39:01.413Z,13.27
2023-02-23T09:41:47.185Z,13.13
2023-02-23T09:44:22.642Z,14.23
2023-02-23T09:46:58.099Z,13.80
2023-02-23T09:49:28.413Z,16.47
2023-02-23T09:55:13.793Z,13.60
2023-02-23T09:57:43.627Z,12.83
2023-02-23T10:00:21.238Z,14.43
2023-02-23T10:03:10.243Z,10.57
2023-02-23T10:05:44.244Z,10.67
2023-02-23T10:08:33.095Z,15.27
2023-02-23T10:11:08.671Z,12.80
2023-02-23T10:13:46.325Z,13.30
2023-02-23T10:16:20.724Z,10.43
2023-02-23T10:18:52.720Z,12.87
2023-02-23T10:21:25.126Z,14.83
2023-02-23T10:23:56.370Z,11.63
2023-02-23T10:26:33.969Z,12.83
2023-02-23T10:29:06.189Z,10.07
2023-02-23T10:31:39.063Z,9.70
2023-02-23T10:34:14.980Z,13.57
2023-02-23T10:36:46.509Z,11.90
2023-02-23T10:39:16.570Z,14.00
2023-02-23T10:41:48.145Z,11.07
2023-02-23T10:44:35.634Z,9.17
2023-02-23T10:47:08.329Z,10.07
2023-02-23T10:49:42.711Z,11.33
2023-02-23T10:52:13.845Z,9.23
2023-02-23T10:54:44.821Z,8.90
2023-02-23T10:57:22.297Z,11.93
2023-02-23T11:00:28.082Z,10.07
2023-02-23T11:02:59.476Z,8.47
2023-02-23T11:05:32.061Z,9.10
2023-02-23T11:08:21.182Z,11.03
2023-02-23T11:11:01.498Z,9.33
2023-02-23T11:13:39.387Z,7.00
2023-02-23T11:16:11.619Z,10.43
2023-02-23T11:18:43.358Z,8.90
2023-02-23T11:21:14.760Z,7.63
2023-02-23T11:23:44.272Z,8.80
2023-02-23T11:26:30.249Z,9.10
2023-02-23T11:29:05.956Z,10.73
2023-02-23T11:31:36.526Z,13.70
2023-02-23T11:34:07.764Z,8.57
2023-02-23T11:36:42.505Z,10.10
2023-02-23T11:42:15.806Z,8.27
2023-02-23T11:44:46.756Z,6.60
2023-02-23T11:47:19.123Z,6.07
2023-02-23T11:49:50.293Z,7.30
2023-02-23T11:52:20.723Z,6.03
2023-02-23T11:54:58.200Z,6.47
2023-02-23T11:57:30.027Z,8.23
2023-02-23T12:00:02.932Z,6.57
2023-02-23T12:02:33.621Z,8.40
2023-02-23T12:05:14.512Z,8.63
2023-02-23T12:07:44.732Z,7.17
2023-02-23T12:10:33.303Z,9.10
2023-02-23T12:16:09.907Z,8.33
2023-02-23T12:18:46.298Z,6.10
2023-02-23T12:21:24.152Z,7.47
2023-02-23T12:23:54.161Z,7.80
2023-02-23T12:26:24.046Z,7.80
2023-02-23T12:29:00.725Z,9.20
2023-02-23T12:31:44.880Z,10.07
2023-02-23T12:34:17.111Z,8.33
2023-02-23T12:36:48.650Z,11.30
2023-02-23T12:39:22.469Z,8.40
2023-02-23T12:41:58.411Z,8.90
2023-02-23T12:44:33.788Z,6.90
2023-02-23T12:47:10.347Z,10.03
2023-02-23T12:49:43.194Z,7.90
2023-02-23T12:52:15.480Z,7.77
2023-02-23T12:54:47.962Z,6.13
2023-02-23T12:57:24.299Z,6.33
2023-02-23T13:00:24.286Z,5.67
2023-02-23T13:03:04.201Z,9.07
2023-02-23T13:05:35.311Z,9.47
2023-02-23T13:08:13.625Z,8.70
2023-02-23T13:10:50.652Z,10.10
2023-02-23T13:13:26.490Z,6.60
2023-02-23T13:16:00.436Z,7.97
2023-02-23T13:18:36.735Z,6.27
2023-02-23T13:21:10.019Z,7.07
2023-02-23T13:23:41.866Z,6.27
2023-02-23T13:26:16.601Z,5.97
2023-02-23T13:28:50.821Z,6.13
2023-02-23T13:31:24.689Z,8.23
2023-02-23T13:33:56.672Z,5.50
2023-02-23T13:36:29.737Z,4.30
2023-02-23T13:39:18.670Z,4.03
2023-02-23T13:41:51.328Z,2.87
2023-02-23T13:44:25.285Z,2.73
2023-02-23T13:46:57.427Z,6.43
2023-02-23T13:49:36.481Z,7.57
2023-02-23T13:52:14.977Z,7.00
2023-02-23T13:54:59.501Z,4.40
2023-02-23T13:57:29.242Z,6.03
2023-02-23T13:59:59.587Z,4.47
2023-02-23T14:02:34.879Z,5.57
2023-02-23T14:05:09.240Z,5.07
2023-02-23T14:07:42.232Z,3.87
2023-02-23T14:10:12.301Z,4.70
2023-02-23T14:12:42.621Z,4.83
2023-02-23T14:15:29.650Z,4.30
2023-02-23T14:17:59.586Z,3.73
2023-02-23T14:20:52.349Z,3.50
2023-02-23T14:23:31.598Z,4.43
2023-02-23T14:26:15.961Z,4.33
2023-02-23T14:28:46.584Z,3.13
2023-02-23T14:31:21.634Z,4.27
2023-02-23T14:33:56.333Z,7.43
2023-02-23T14:36:48.336Z,3.40
2023-02-23T14:39:19.747Z,3.60
2023-02-23T14:41:51.492Z,3.70
2023-02-23T14:44:29.716Z,3.50
2023-02-23T14:47:02.886Z,8.23
2023-02-23T14:49:36.713Z,4.00
2023-02-23T14:52:11.450Z,3.97
2023-02-23T14:54:43.242Z,3.70
2023-02-23T14:57:19.478Z,2.43
2023-02-23T14:59:53.624Z,3.40
2023-02-23T15:02:24.846Z,3.57
2023-02-23T15:04:53.553Z,4.73
2023-02-23T15:07:34.168Z,3.67
2023-02-23T15:10:07.048Z,3.97
2023-02-23T15:12:39.459Z,3.57
2023-02-23T15:15:15.053Z,5.30
2023-02-23T15:17:45.584Z,5.80
2023-02-23T15:20:17.204Z,3.07
2023-02-23T15:22:49.365Z,4.83
2023-02-23T15:25:19.735Z,4.67
2023-02-23T15:27:52.486Z,3.97
2023-02-23T15:30:24.267Z,4.17
2023-02-23T15:33:02.162Z,5.30
2023-02-23T15:35:31.891Z,3.40
2023-02-23T15:38:14.094Z,4.63
2023-02-23T15:40:54.902Z,5.17
2023-02-23T15:43:23.874Z,3.37
2023-02-23T15:45:53.104Z,3.50
2023-02-23T15:48:24.384Z,3.43
2023-02-23T15:50:55.054Z,2.77
2023-02-23T15:53:30.867Z,4.60
2023-02-23T15:56:03.245Z,3.23
2023-02-23T15:58:33.214Z,6.20
2023-02-23T16:01:06.199Z,4.20
2023-02-23T16:03:45.148Z,2.93
2023-02-23T16:06:26.867Z,7.70
2023-02-23T16:09:03.896Z,6.60
2023-02-23T16:11:36.672Z,4.80
2023-02-23T16:17:10.071Z,3.67
2023-02-23T16:19:54.409Z,4.23
2023-02-23T16:22:27.202Z,3.73
2023-02-23T16:25:05.628Z,3.53
2023-02-23T16:27:35.968Z,5.33
2023-02-23T16:30:08.584Z,6.33
2023-02-23T16:32:49.789Z,5.93
2023-02-23T16:35:19.980Z,3.63
2023-02-23T16:38:07.185Z,4.30
2023-02-23T16:40:54.003Z,4.40
2023-02-23T16:46:48.016Z,11.20
2023-02-23T16:49:35.919Z,7.20
2023-02-23T16:52:16.514Z,11.27
2023-02-23T16:57:39.818Z,7.20
2023-02-23T17:00:20.230Z,9.13
2023-02-23T17:11:59.623Z,4.53
2023-02-23T17:14:38.691Z,5.37
2023-02-23T17:17:14.737Z,5.03
2023-02-23T17:25:19.831Z,7.30
2023-02-23T17:27:49.757Z,8.30
2023-02-23T17:30:27.133Z,5.77
2023-02-23T17:33:00.140Z,6.77
2023-02-23T17:35:35.806Z,7.40
2023-02-23T17:41:09.267Z,9.23
2023-02-23T17:43:40.991Z,7.40
2023-02-23T17:46:18.482Z,9.43
2023-02-23T17:48:56.414Z,10.80
2023-02-23T17:51:25.994Z,9.77
2023-02-23T17:53:55.657Z,10.97
2023-02-23T17:56:31.750Z,11.20
2023-02-23T17:59:03.833Z,9.83
2023-02-23T18:01:35.456Z,16.50
2023-02-23T18:04:04.766Z,15.30
2023-02-23T18:06:33.419Z,12.03
2023-02-23T18:09:05.541Z,13.57
2023-02-23T18:11:36.464Z,11.97
2023-02-23T18:14:09.669Z,14.47
2023-02-23T18:16:42.104Z,13.40
2023-02-23T18:19:26.580Z,18.27
2023-02-23T18:22:01.397Z,15.90
2023-02-23T18:30:02.956Z,14.60
2023-02-23T18:32:33.031Z,16.13
2023-02-23T18:35:05.057Z,16.07
2023-02-23T18:37:34.825Z,10.33
2023-02-23T18:40:07.226Z,13.53
2023-02-23T18:42:38.530Z,16.50
2023-02-23T18:45:08.464Z,14.80
2023-02-23T18:47:37.384Z,19.57
2023-02-23T18:50:07.220Z,15.33
2023-02-23T18:52:36.706Z,13.93
2023-02-23T18:55:05.416Z,13.83
2023-02-23T18:57:33.986Z,12.37
2023-02-23T19:00:07.700Z,17.80
2023-02-23T19:02:36.310Z,12.50
2023-02-23T19:05:05.039Z,13.87
2023-02-23T19:07:33.786Z,9.67
2023-02-23T19:12:45.837Z,14.70
2023-02-23T19:15:16.143Z,12.87
2023-02-23T19:17:46.455Z,15.03
2023-02-23T19:20:16.328Z,12.60
2023-02-23T19:22:46.114Z,13.60
2023-02-23T19:25:15.452Z,12.40
2023-02-23T19:27:44.537Z,13.43
2023-02-23T19:30:17.647Z,15.47
2023-02-23T19:32:49.697Z,12.93
2023-02-23T19:35:19.802Z,11.57
2023-02-23T19:37:50.410Z,9.33
2023-02-23T19:40:23.997Z,12.20
2023-02-23T19:42:55.541Z,9.87
2023-02-23T19:45:27.043Z,15.60
2023-02-23T19:47:59.420Z,15.47
2023-02-23T19:50:31.871Z,11.93
2023-02-23T19:53:01.934Z,16.13
2023-02-23T19:55:31.202Z,12.60
2023-02-23T19:58:00.115Z,12.57
2023-02-23T20:00:30.589Z,12.67
2023-02-23T20:03:07.045Z,12.57
2023-02-23T20:05:37.023Z,13.53
2023-02-23T20:08:06.360Z,11.83
2023-02-23T20:10:35.449Z,14.87
2023-02-23T20:13:04.074Z,11.93
2023-02-23T20:15:32.631Z,14.57
2023-02-23T20:18:02.491Z,10.30
2023-02-23T20:20:31.863Z,11.87
2023-02-23T20:23:00.618Z,12.37
2023-02-23T20:25:29.139Z,12.40
2023-02-23T20:27:59.466Z,10.20
2023-02-23T20:30:28.313Z,11.43
2023-02-23T20:32:57.875Z,11.07
2023-02-23T20:35:28.190Z,13.53
2023-02-23T20:37:56.761Z,15.43
2023-02-23T20:40:27.442Z,13.43
2023-02-23T20:42:56.843Z,13.03
2023-02-23T20:45:27.171Z,11.63
2023-02-23T20:47:56.464Z,12.43
2023-02-23T20:50:29.991Z,15.00
2023-02-23T20:53:18.312Z,12.77
2023-02-23T20:55:49.372Z,12.27
2023-02-23T20:58:24.831Z,12.20
2023-02-23T21:00:57.189Z,12.53
2023-02-23T21:03:27.480Z,9.67
2023-02-23T21:05:56.601Z,14.43
2023-02-23T21:08:26.721Z,14.47
2023-02-23T21:10:58.904Z,16.23
2023-02-23T21:13:28.909Z,18.40
2023-02-23T21:16:01.725Z,18.80
2023-02-23T21:18:31.148Z,15.37
2023-02-23T21:21:10.610Z,15.83
2023-02-23T21:23:40.324Z,18.33
2023-02-23T21:26:14.625Z,14.17
2023-02-23T21:28:43.695Z,19.00
2023-02-23T21:31:13.289Z,15.07
2023-02-23T21:33:43.448Z,17.80
2023-02-23T21:36:13.712Z,18.77
2023-02-23T21:38:59.688Z,16.80
2023-02-23T21:41:46.029Z,21.97
2023-02-23T21:44:16.170Z,19.73
2023-02-23T21:46:47.966Z,17.70
2023-02-23T21:49:20.802Z,21.17
2023-02-23T21:51:51.860Z,17.40
2023-02-23T21:54:22.240Z,16.37
2023-02-23T21:56:55.643Z,20.70
2023-02-23T21:59:25.561Z,18.70
2023-02-23T22:01:55.903Z,17.60
2023-02-23T22:04:25.800Z,17.70
2023-02-23T22:06:54.431Z,20.60
2023-02-23T22:09:23.976Z,21.73
2023-02-23T22:11:54.757Z,16.77
2023-02-23T22:14:24.181Z,18.30
2023-02-23T22:16:52.840Z,17.67
2023-02-23T22:19:22.806Z,21.60
2023-02-23T22:21:51.684Z,20.27
2023-02-23T22:24:20.408Z,17.97
2023-02-23T22:26:54.283Z,17.30
2023-02-23T22:29:27.356Z,20.03
2023-02-23T22:31:56.563Z,19.67
2023-02-23T22:37:14.003Z,19.00
2023-02-23T22:39:45.566Z,13.83
2023-02-23T22:42:18.276Z,14.93
2023-02-23T22:45:05.064Z,17.23
2023-02-23T22:47:35.683Z,13.37
2023-02-23T22:50:07.578Z,17.07
2023-02-23T22:55:23.227Z,20.83
2023-02-23T23:00:36.997Z,14.33
2023-02-23T23:03:06.226Z,15.60
2023-02-23T23:05:35.754Z,13.03
2023-02-23T23:08:04.434Z,11.17
2023-02-23T23:10:33.074Z,14.37
2023-02-23T23:13:03.397Z,15.47
2023-02-23T23:15:33.520Z,12.90
2023-02-23T23:18:03.789Z,11.27
2023-02-23T23:20:32.654Z,10.87
2023-02-23T23:23:01.632Z,11.90
2023-02-23T23:25:30.402Z,12.70
2023-02-23T23:28:00.423Z,13.50
2023-02-23T23:30:47.145Z,12.33
2023-02-23T23:33:20.737Z,10.37
2023-02-23T23:38:35.814Z,13.57
2023-02-23T23:41:15.877Z,10.60
2023-02-23T23:43:54.490Z,10.20
2023-02-23T23:49:13.305Z,11.50
2023-02-23T23:51:47.266Z,12.80
2023-02-23T23:54:20.324Z,11.47
2023-02-23T23:56:53.823Z,12.90
2023-02-23T23:59:28.892Z,11.00
